Time;durP1;ratioP1;P1;durP2;ratioP2;P2;SDS_P1;SDS_P2;PMS_P1;PMS_P2;Temp;Humidity;BMP_temperature;BMP_pressure;BME280_temperature;BME280_humidity;BME280_pressure;Samples;Min_cycle;Max_cycle;Signal;HPM_P1;HPM_P2
2023/03/26 00:00:47;;;;;;;26.90;4.05;;;7.40;99.90;;;;;;4973314;28;20053;-66
2023/03/26 00:03:15;;;;;;;24.65;4.40;;;7.40;99.90;;;;;;4976228;28;20042;-66
2023/03/26 00:05:41;;;;;;;20.55;4.05;;;7.40;99.90;;;;;;4976442;28;20524;-65
2023/03/26 00:08:07;;;;;;;22.23;3.80;;;7.40;99.90;;;;;;4978521;28;20190;-66
2023/03/26 00:10:38;;;;;;;27.42;4.10;;;7.30;99.90;;;;;;4983019;28;20046;-65
2023/03/26 00:13:05;;;;;;;22.17;3.92;;;7.40;99.90;;;;;;4978607;28;20050;-67
2023/03/26 00:15:32;;;;;;;24.38;3.63;;;7.40;99.90;;;;;;4975101;28;20042;-67
2023/03/26 00:17:59;;;;;;;24.38;3.67;;;7.30;99.90;;;;;;4991492;28;20121;-67
2023/03/26 00:20:26;;;;;;;21.60;3.30;;;7.30;99.90;;;;;;4975183;28;20046;-67
2023/03/26 00:22:53;;;;;;;24.83;4.30;;;7.30;99.90;;;;;;4977084;28;20092;-68
2023/03/26 00:25:20;;;;;;;18.83;4.38;;;7.30;99.90;;;;;;4989264;28;20046;-66
2023/03/26 00:27:48;;;;;;;22.90;4.18;;;7.30;99.90;;;;;;4977210;28;20046;-66
2023/03/26 00:30:15;;;;;;;17.75;3.38;;;7.20;99.90;;;;;;4976033;28;20385;-65
2023/03/26 00:32:44;;;;;;;24.35;3.67;;;7.10;99.90;;;;;;4959711;28;20402;-66
2023/03/26 00:35:10;;;;;;;26.42;4.57;;;7.10;99.90;;;;;;4979991;28;20101;-65
2023/03/26 00:37:36;;;;;;;24.10;3.85;;;7.10;99.90;;;;;;4952275;28;20078;-65
2023/03/26 00:40:06;;;;;;;22.15;4.00;;;7.00;99.90;;;;;;4981445;28;20043;-66
2023/03/26 00:42:33;;;;;;;31.98;4.65;;;7.00;99.90;;;;;;4973490;28;20105;-66
2023/03/26 00:44:59;;;;;;;19.88;3.65;;;7.00;99.90;;;;;;4959412;28;20034;-67
2023/03/26 00:47:27;;;;;;;18.00;3.50;;;6.90;99.90;;;;;;4982962;28;20058;-68
2023/03/26 00:49:54;;;;;;;20.80;3.40;;;6.90;99.90;;;;;;4974417;28;20046;-67
2023/03/26 00:52:20;;;;;;;22.23;3.88;;;6.90;99.90;;;;;;4963113;28;20097;-66
2023/03/26 00:54:53;;;;;;;22.80;3.60;;;6.90;99.90;;;;;;4979982;28;20062;-65
2023/03/26 00:57:20;;;;;;;28.88;4.20;;;6.90;99.90;;;;;;4998021;28;20100;-66
2023/03/26 00:59:47;;;;;;;17.52;3.35;;;6.90;99.90;;;;;;4977049;28;21482;-65
2023/03/26 01:02:16;;;;;;;22.25;3.83;;;6.90;99.90;;;;;;4989936;28;20045;-66
2023/03/26 01:04:54;;;;;;;23.25;3.80;;;6.90;99.90;;;;;;4990150;28;20511;-65
2023/03/26 01:07:27;;;;;;;24.67;3.72;;;6.90;99.90;;;;;;4999492;28;20053;-65
2023/03/26 01:09:57;;;;;;;23.35;4.05;;;6.80;99.90;;;;;;4997996;28;20068;-66
2023/03/26 01:12:26;;;;;;;22.92;4.00;;;6.80;99.90;;;;;;4999929;28;20120;-65
2023/03/26 01:14:55;;;;;;;19.50;3.13;;;6.80;99.90;;;;;;5000592;28;20038;-65
2023/03/26 01:17:22;;;;;;;21.95;3.90;;;6.80;99.90;;;;;;4999556;28;20145;-67
2023/03/26 01:20:12;;;;;;;18.40;3.38;;;6.80;99.90;;;;;;5000897;28;20112;-66
2023/03/26 01:22:43;;;;;;;23.35;3.35;;;6.80;99.90;;;;;;4999415;28;20135;-65
2023/03/26 01:25:09;;;;;;;25.65;3.97;;;6.70;99.90;;;;;;5014215;28;20049;-66
2023/03/26 01:27:59;;;;;;;20.75;3.42;;;6.80;99.90;;;;;;5000478;28;20050;-65
2023/03/26 01:30:41;;;;;;;25.00;4.22;;;6.70;99.90;;;;;;4998482;28;20100;-65
2023/03/26 01:33:32;;;;;;;22.15;3.72;;;6.70;99.90;;;;;;4998908;28;20042;-66
2023/03/26 01:36:05;;;;;;;31.55;4.03;;;6.70;99.90;;;;;;4999911;28;20506;-68
2023/03/26 01:38:38;;;;;;;19.45;3.67;;;6.70;99.90;;;;;;4998954;28;20124;-67
2023/03/26 01:41:09;;;;;;;;;;;6.70;99.90;;;;;;5003589;28;20046;-66
2023/03/26 01:43:57;;;;;;;17.02;3.00;;;6.60;99.90;;;;;;4996624;28;19924;-65
2023/03/26 01:46:25;;;;;;;20.00;4.30;;;6.60;99.90;;;;;;5006489;28;20386;-67
2023/03/26 01:48:51;;;;;;;23.63;4.00;;;6.60;99.90;;;;;;4995586;28;20509;-65
2023/03/26 01:51:32;;;;;;;21.63;3.30;;;6.60;99.90;;;;;;4998487;28;20046;-65
2023/03/26 01:54:04;;;;;;;26.08;3.42;;;6.50;99.90;;;;;;4994027;28;20045;-67
2023/03/26 01:56:45;;;;;;;27.20;4.33;;;6.60;99.90;;;;;;4982081;28;20516;-67
2023/03/26 01:59:36;;;;;;;17.80;3.70;;;6.50;99.90;;;;;;4995023;28;20639;-65
2023/03/26 02:02:25;;;;;;;28.58;3.63;;;6.60;99.90;;;;;;4981016;28;20050;-65
2023/03/26 02:05:07;;;;;;;23.48;3.75;;;6.50;99.90;;;;;;4997025;28;20050;-65
2023/03/26 02:08:04;;;;;;;25.13;3.35;;;6.50;99.90;;;;;;5010535;28;20058;-66
2023/03/26 02:10:36;;;;;;;19.90;3.40;;;6.60;99.90;;;;;;4997512;28;20076;-66
2023/03/26 02:13:02;;;;;;;19.67;3.83;;;6.50;99.90;;;;;;5003028;28;20041;-67
2023/03/26 02:15:28;;;;;;;24.65;3.60;;;6.50;99.90;;;;;;4994310;28;20038;-65
2023/03/26 02:17:54;;;;;;;18.90;4.13;;;6.50;99.90;;;;;;4971952;28;20061;-66
2023/03/26 02:20:20;;;;;;;25.00;4.32;;;6.60;99.90;;;;;;5001476;28;20038;-65
2023/03/26 02:22:47;;;;;;;27.27;4.20;;;6.50;99.90;;;;;;4994988;28;20184;-65
2023/03/26 02:25:16;;;;;;;27.83;3.63;;;6.50;99.90;;;;;;4988270;28;20049;-65
2023/03/26 02:27:43;;;;;;;19.73;3.25;;;6.60;99.90;;;;;;4996855;28;20041;-66
2023/03/26 02:30:17;;;;;;;24.23;4.15;;;6.50;99.90;;;;;;5013855;28;20115;-67
2023/03/26 02:32:43;;;;;;;20.48;3.78;;;6.50;99.90;;;;;;4988374;28;20045;-66
2023/03/26 02:35:10;;;;;;;21.02;3.40;;;6.50;99.90;;;;;;4986611;28;20049;-67
2023/03/26 02:37:37;;;;;;;13.57;3.55;;;6.50;99.90;;;;;;4996911;28;20118;-66
2023/03/26 02:40:09;;;;;;;19.00;3.10;;;6.50;99.90;;;;;;5002225;28;20349;-67
2023/03/26 02:42:34;;;;;;;19.45;3.33;;;6.50;99.90;;;;;;4985528;28;20057;-65
2023/03/26 02:45:00;;;;;;;19.23;3.50;;;6.50;99.90;;;;;;4997680;28;20461;-65
2023/03/26 02:47:26;;;;;;;25.50;3.13;;;6.50;99.90;;;;;;4996272;28;20049;-66
2023/03/26 02:49:52;;;;;;;32.78;4.05;;;6.50;99.90;;;;;;5001390;28;20049;-66
2023/03/26 02:52:18;;;;;;;22.85;3.45;;;6.50;99.90;;;;;;4996558;28;20061;-66
2023/03/26 02:54:44;;;;;;;20.00;4.03;;;6.60;99.90;;;;;;4991639;28;20049;-65
2023/03/26 02:57:10;;;;;;;18.45;3.72;;;6.50;99.90;;;;;;4995001;28;20046;-67
2023/03/26 02:59:35;;;;;;;25.83;3.38;;;6.60;99.90;;;;;;5011185;28;20060;-65
2023/03/26 03:02:01;;;;;;;20.55;3.67;;;6.50;99.90;;;;;;5010507;28;20044;-65
2023/03/26 03:04:27;;;;;;;22.45;4.22;;;6.50;99.90;;;;;;4999454;28;20068;-65
2023/03/26 03:06:56;;;;;;;16.45;3.20;;;6.50;99.90;;;;;;4995149;28;20037;-65
2023/03/26 03:09:25;;;;;;;22.95;3.58;;;6.60;99.90;;;;;;4992866;28;20049;-67
2023/03/26 03:11:53;;;;;;;17.25;3.35;;;6.50;99.90;;;;;;4992422;28;20050;-66
2023/03/26 03:14:19;;;;;;;15.68;3.40;;;6.50;99.90;;;;;;4994975;28;20041;-65
2023/03/26 03:16:45;;;;;;;20.55;3.47;;;6.50;99.90;;;;;;4983331;28;20672;-65
2023/03/26 03:19:12;;;;;;;15.70;3.25;;;6.50;99.90;;;;;;5002341;28;20057;-65
2023/03/26 03:21:38;;;;;;;15.43;3.30;;;6.50;99.90;;;;;;4994462;28;20100;-67
2023/03/26 03:24:04;;;;;;;18.90;3.13;;;6.50;99.90;;;;;;4998980;28;20527;-67
2023/03/26 03:26:30;;;;;;;20.33;3.65;;;6.50;99.90;;;;;;4994417;28;20484;-65
2023/03/26 03:28:57;;;;;;;15.07;3.40;;;6.40;99.90;;;;;;4996101;28;20065;-65
2023/03/26 03:31:25;;;;;;;15.98;4.07;;;6.40;99.90;;;;;;5014992;28;20046;-66
2023/03/26 03:33:51;;;;;;;23.17;3.83;;;6.40;99.90;;;;;;4997480;28;20115;-65
2023/03/26 03:36:22;;;;;;;18.25;3.75;;;6.40;99.90;;;;;;5012821;28;20038;-67
2023/03/26 03:38:49;;;;;;;22.48;3.50;;;6.40;99.90;;;;;;5000382;28;20034;-67
2023/03/26 03:41:17;;;;;;;18.48;3.70;;;6.40;99.90;;;;;;4990507;28;20103;-66
2023/03/26 03:43:44;;;;;;;24.73;3.78;;;6.40;99.90;;;;;;5004104;28;20053;-65
2023/03/26 03:46:10;;;;;;;18.73;3.63;;;6.30;99.90;;;;;;4997562;28;20049;-65
2023/03/26 03:48:37;;;;;;;22.55;3.63;;;6.30;99.90;;;;;;5009935;28;20056;-65
2023/03/26 03:51:05;;;;;;;24.58;4.00;;;6.30;99.90;;;;;;5006983;28;20049;-66
2023/03/26 03:53:31;;;;;;;17.27;3.08;;;6.30;99.90;;;;;;5012628;28;20096;-66
2023/03/26 03:55:57;;;;;;;18.00;3.83;;;6.30;99.90;;;;;;5011287;28;20547;-65
2023/03/26 03:58:26;;;;;;;18.65;4.10;;;6.30;99.90;;;;;;4986471;28;20411;-65
2023/03/26 04:00:59;;;;;;;15.00;2.90;;;6.30;99.90;;;;;;4993054;28;20143;-65
2023/03/26 04:03:26;;;;;;;;;;;6.30;99.90;;;;;;5014656;28;20056;-66
2023/03/26 04:05:54;;;;;;;15.95;4.07;;;6.30;99.90;;;;;;4998208;28;19922;-66
2023/03/26 04:08:23;;;;;;;21.85;3.42;;;6.30;99.90;;;;;;4987770;28;20053;-66
2023/03/26 04:10:49;;;;;;;24.92;4.35;;;6.30;99.90;;;;;;4999364;28;20037;-64
2023/03/26 04:13:16;;;;;;;22.08;3.47;;;6.30;99.90;;;;;;4996283;28;20045;-65
2023/03/26 04:15:43;;;;;;;19.50;3.25;;;6.20;99.90;;;;;;4970897;28;20046;-65
2023/03/26 04:18:11;;;;;;;21.35;3.22;;;6.20;99.90;;;;;;5000135;28;20480;-65
2023/03/26 04:20:40;;;;;;;23.02;3.97;;;6.20;99.90;;;;;;4991347;28;20110;-65
2023/03/26 04:23:07;;;;;;;17.95;3.80;;;6.20;99.90;;;;;;4995480;28;20050;-66
2023/03/26 04:25:35;;;;;;;19.00;3.47;;;6.20;99.90;;;;;;4995979;28;20041;-66
2023/03/26 04:28:07;;;;;;;17.92;3.63;;;6.20;99.90;;;;;;5001375;28;20045;-67
2023/03/26 04:30:34;;;;;;;14.15;3.00;;;6.20;99.90;;;;;;4982694;28;20084;-66
2023/03/26 04:33:02;;;;;;;15.98;3.13;;;6.20;99.90;;;;;;4979405;28;20048;-66
2023/03/26 04:35:33;;;;;;;19.60;3.50;;;6.20;99.90;;;;;;4998297;28;20065;-65
2023/03/26 04:38:05;;;;;;;16.73;2.92;;;6.20;99.90;;;;;;4993938;28;20128;-65
2023/03/26 04:40:33;;;;;;;17.38;3.40;;;6.20;99.90;;;;;;5001870;28;20052;-65
2023/03/26 04:43:01;;;;;;;21.77;3.05;;;6.20;99.90;;;;;;5009955;28;20069;-65
2023/03/26 04:45:29;;;;;;;24.17;3.80;;;6.10;99.90;;;;;;4997739;28;20100;-66
2023/03/26 04:47:58;;;;;;;16.98;3.17;;;6.20;99.90;;;;;;5011762;28;20049;-65
2023/03/26 04:50:25;;;;;;;14.73;3.33;;;6.20;99.90;;;;;;4998515;28;20041;-66
2023/03/26 04:52:54;;;;;;;21.95;3.13;;;6.20;99.90;;;;;;4996946;28;20941;-65
2023/03/26 04:55:28;;;;;;;15.55;3.17;;;6.20;99.90;;;;;;4995662;28;20048;-67
2023/03/26 04:57:58;;;;;;;18.05;2.75;;;6.20;99.90;;;;;;5011491;28;20061;-65
2023/03/26 05:00:25;;;;;;;14.82;3.08;;;6.30;99.90;;;;;;4994526;28;20042;-65
2023/03/26 05:02:52;;;;;;;20.23;3.22;;;6.20;99.90;;;;;;4999121;28;20030;-66
2023/03/26 05:05:18;;;;;;;22.90;3.70;;;6.20;99.90;;;;;;4995653;28;20038;-67
2023/03/26 05:07:44;;;;;;;28.48;3.75;;;6.20;99.90;;;;;;5000667;28;20095;-67
2023/03/26 05:10:13;;;;;;;16.27;3.00;;;6.20;99.90;;;;;;4995739;28;20127;-65
2023/03/26 05:12:39;;;;;;;24.60;3.72;;;6.10;99.90;;;;;;4996000;28;20053;-66
2023/03/26 05:15:05;;;;;;;17.55;2.92;;;6.10;99.90;;;;;;4981860;28;20045;-66
2023/03/26 05:17:33;;;;;;;24.30;3.60;;;6.10;99.90;;;;;;4996041;28;20207;-65
2023/03/26 05:20:00;;;;;;;19.83;3.45;;;6.10;99.90;;;;;;4986419;28;20502;-66
2023/03/26 05:22:26;;;;;;;24.92;3.40;;;6.10;99.90;;;;;;5002006;28;20133;-65
2023/03/26 05:24:52;;;;;;;15.20;2.97;;;6.10;99.90;;;;;;4979093;28;20045;-66
2023/03/26 05:27:21;;;;;;;19.40;4.35;;;6.00;99.90;;;;;;4993060;28;20100;-67
2023/03/26 05:29:46;;;;;;;18.70;2.97;;;6.00;99.90;;;;;;4997643;28;20141;-65
2023/03/26 05:32:12;;;;;;;23.20;3.35;;;6.00;99.90;;;;;;4990201;28;20042;-66
2023/03/26 05:34:39;;;;;;;17.38;3.45;;;6.00;99.90;;;;;;4988915;28;20466;-64
2023/03/26 05:37:05;;;;;;;17.73;3.05;;;5.90;99.90;;;;;;4985277;28;20038;-66
2023/03/26 05:39:32;;;;;;;11.57;2.45;;;5.90;99.90;;;;;;4995683;28;20107;-65
2023/03/26 05:41:58;;;;;;;23.77;2.78;;;5.90;99.90;;;;;;5005194;28;20516;-66
2023/03/26 05:44:24;;;;;;;16.65;3.50;;;5.90;99.90;;;;;;4990749;28;20558;-65
2023/03/26 05:46:50;;;;;;;15.00;3.00;;;5.90;99.90;;;;;;4986337;28;20041;-65
2023/03/26 05:49:15;;;;;;;16.40;3.13;;;5.90;99.90;;;;;;4996632;28;20064;-66
2023/03/26 05:51:41;;;;;;;16.33;3.05;;;5.90;99.90;;;;;;5002271;28;20044;-65
2023/03/26 05:54:07;;;;;;;22.85;4.38;;;5.90;99.90;;;;;;4986810;28;20060;-65
2023/03/26 05:56:33;;;;;;;15.25;2.97;;;5.90;99.90;;;;;;5001283;28;20045;-65
2023/03/26 05:58:59;;;;;;;15.52;3.08;;;5.80;99.90;;;;;;4993074;28;20120;-66
2023/03/26 06:01:25;;;;;;;21.85;3.35;;;5.90;99.90;;;;;;4992782;28;20159;-66
2023/03/26 06:03:51;;;;;;;21.25;3.28;;;5.90;99.90;;;;;;4993911;28;20594;-66
2023/03/26 06:06:19;;;;;;;21.08;3.33;;;5.90;99.90;;;;;;4992577;28;20389;-65
2023/03/26 06:08:50;;;;;;;20.33;3.63;;;5.90;99.90;;;;;;4985791;28;20046;-65
2023/03/26 06:11:18;;;;;;;25.35;3.70;;;5.90;99.90;;;;;;4993015;28;20479;-66
2023/03/26 06:13:44;;;;;;;18.85;3.45;;;5.90;99.90;;;;;;4997969;28;20057;-65
2023/03/26 06:16:11;;;;;;;19.05;3.20;;;6.00;99.90;;;;;;4990338;28;20034;-67
2023/03/26 06:18:38;;;;;;;21.02;3.47;;;6.00;99.90;;;;;;4994981;28;20499;-67
2023/03/26 06:21:05;;;;;;;25.20;3.60;;;6.00;99.90;;;;;;4994128;28;20061;-65
2023/03/26 06:23:32;;;;;;;24.50;3.83;;;6.00;99.90;;;;;;5006134;28;20045;-64
2023/03/26 06:25:58;;;;;;;22.92;3.95;;;6.00;99.90;;;;;;4958365;28;20471;-65
2023/03/26 06:28:24;;;;;;;19.33;2.83;;;6.00;99.90;;;;;;4975637;28;20218;-65
2023/03/26 06:30:50;;;;;;;22.88;3.60;;;6.10;99.90;;;;;;4990204;28;20050;-67
2023/03/26 06:33:16;;;;;;;22.40;3.25;;;6.10;99.90;;;;;;5003749;28;20057;-67
2023/03/26 06:35:44;;;;;;;16.63;3.28;;;6.10;99.90;;;;;;4988775;28;20092;-65
2023/03/26 06:38:10;;;;;;;23.80;3.92;;;6.10;99.90;;;;;;4987482;28;20495;-66
2023/03/26 06:40:37;;;;;;;23.25;3.83;;;6.20;99.90;;;;;;4967849;28;20053;-67
2023/03/26 06:43:03;;;;;;;21.58;4.45;;;6.20;99.90;;;;;;4972789;28;20034;-65
2023/03/26 06:45:31;;;;;;;20.08;3.05;;;6.20;99.90;;;;;;4995917;28;20103;-66
2023/03/26 06:47:57;;;;;;;20.40;3.15;;;6.20;99.90;;;;;;4993065;28;20136;-66
2023/03/26 06:50:22;;;;;;;14.77;2.90;;;6.20;99.90;;;;;;4971640;28;20083;-64
2023/03/26 06:52:49;;;;;;;20.75;4.20;;;6.20;99.90;;;;;;4976713;28;20046;-66
2023/03/26 06:55:15;;;;;;;19.83;2.63;;;6.20;99.90;;;;;;4993399;28;20050;-66
2023/03/26 06:57:44;;;;;;;14.52;2.95;;;6.20;99.90;;;;;;4951075;28;22249;-65
2023/03/26 07:00:12;;;;;;;16.67;3.15;;;6.30;99.90;;;;;;4994975;28;20045;-67
2023/03/26 07:02:38;;;;;;;18.05;2.78;;;6.30;99.90;;;;;;4982673;28;20061;-66
2023/03/26 07:05:04;;;;;;;12.75;2.75;;;6.30;99.90;;;;;;4983400;28;20041;-66
2023/03/26 07:07:31;;;;;;;19.02;3.33;;;6.30;99.90;;;;;;4987950;28;20049;-66
2023/03/26 07:09:56;;;;;;;22.50;3.53;;;6.30;99.90;;;;;;4996267;28;21134;-67
2023/03/26 07:12:22;;;;;;;20.52;3.35;;;6.40;99.90;;;;;;4999682;28;20080;-66
2023/03/26 07:14:48;;;;;;;22.45;3.67;;;6.40;99.90;;;;;;5018249;28;20057;-67
2023/03/26 07:17:14;;;;;;;19.63;3.20;;;6.40;99.90;;;;;;4999761;28;20041;-66
2023/03/26 07:19:40;;;;;;;16.33;3.38;;;6.40;99.90;;;;;;4979390;28;20045;-65
2023/03/26 07:22:06;;;;;;;24.38;3.70;;;6.40;99.90;;;;;;4991917;28;20509;-67
2023/03/26 07:24:32;;;;;;;22.55;3.55;;;6.40;99.90;;;;;;4965527;28;20052;-67
2023/03/26 07:27:13;;;;;;;22.80;3.15;;;6.50;99.90;;;;;;4994087;28;20065;-66
2023/03/26 07:29:43;;;;;;;17.25;2.83;;;6.50;99.90;;;;;;4987530;28;21289;-66
2023/03/26 07:32:21;;;;;;;21.27;3.53;;;6.50;99.90;;;;;;4997134;28;20127;-65
2023/03/26 07:35:10;;;;;;;22.25;4.00;;;6.50;99.90;;;;;;4987069;28;20103;-66
2023/03/26 07:37:52;;;;;;;23.42;3.22;;;6.50;99.90;;;;;;5006918;28;20173;-66
2023/03/26 07:40:36;;;;;;;22.73;3.97;;;6.50;99.90;;;;;;4982512;28;20057;-65
2023/03/26 07:43:21;;;;;;;18.52;3.25;;;6.60;99.90;;;;;;5007266;28;20038;-66
2023/03/26 07:45:47;;;;;;;15.90;3.25;;;6.60;99.90;;;;;;4993708;28;20485;-65
2023/03/26 07:48:17;;;;;;;16.80;2.97;;;6.60;99.90;;;;;;5002771;28;20088;-67
2023/03/26 07:50:44;;;;;;;28.70;3.55;;;6.70;99.90;;;;;;4992384;28;20512;-67
2023/03/26 07:53:10;;;;;;;25.73;4.15;;;6.70;99.90;;;;;;4998275;28;20417;-65
2023/03/26 07:55:52;;;;;;;21.80;3.13;;;6.80;99.90;;;;;;4994654;28;20057;-66
2023/03/26 07:58:36;;;;;;;17.58;2.92;;;6.80;99.90;;;;;;4989349;28;20050;-65
2023/03/26 08:01:13;;;;;;;24.17;3.67;;;6.90;99.90;;;;;;5005514;28;20054;-66
2023/03/26 08:04:10;;;;;;;16.73;3.53;;;7.00;99.90;;;;;;5015063;28;20049;-66
2023/03/26 08:06:38;;;;;;;22.52;3.45;;;7.10;99.90;;;;;;5016158;28;20099;-66
2023/03/26 08:09:10;;;;;;;20.33;2.78;;;7.20;99.90;;;;;;4995711;28;20669;-66
2023/03/26 08:12:15;;;;;;;16.85;3.25;;;7.20;99.90;;;;;;5015088;28;20061;-67
2023/03/26 08:15:09;;;;;;;17.17;3.17;;;7.20;99.90;;;;;;4951233;28;20049;-65
2023/03/26 08:17:45;;;;;;;19.48;3.30;;;7.30;99.90;;;;;;5002795;28;20046;-67
2023/03/26 08:20:46;;;;;;;14.80;2.97;;;7.40;99.90;;;;;;5001772;28;20046;-65
2023/03/26 08:23:37;;;;;;;12.02;2.60;;;7.50;99.90;;;;;;5002525;28;20099;-65
2023/03/26 08:26:26;;;;;;;18.60;2.85;;;7.50;99.90;;;;;;5000332;28;20502;-67
2023/03/26 08:29:08;;;;;;;20.58;3.90;;;7.40;99.90;;;;;;4988633;28;20104;-65
2023/03/26 08:31:38;;;;;;;19.52;3.00;;;7.50;99.90;;;;;;5000376;28;20049;-64
2023/03/26 08:34:05;;;;;;;12.68;2.90;;;7.70;99.90;;;;;;5015500;28;20471;-65
2023/03/26 08:36:31;;;;;;;13.25;3.65;;;7.80;99.90;;;;;;4994316;28;22342;-66
2023/03/26 08:38:58;;;;;;;15.27;2.75;;;7.90;99.90;;;;;;4995622;28;20045;-66
2023/03/26 08:42:04;;;;;;;15.23;2.92;;;8.00;99.90;;;;;;4997083;28;20049;-65
2023/03/26 08:44:46;;;;;;;18.60;3.70;;;8.10;99.90;;;;;;4978071;28;20128;-66
2023/03/26 08:47:33;;;;;;;19.35;3.50;;;8.10;99.90;;;;;;4997105;28;20060;-65
2023/03/26 08:50:36;;;;;;;15.57;3.10;;;8.10;99.90;;;;;;4994315;28;20519;-65
2023/03/26 08:53:02;;;;;;;;;;;8.20;99.90;;;;;;4991416;28;20134;-65
2023/03/26 08:55:37;;;;;;;17.10;3.15;;;8.10;99.90;;;;;;4977465;28;19921;-66
2023/03/26 08:58:37;;;;;;;17.55;2.70;;;8.10;99.90;;;;;;4995272;28;20693;-66
2023/03/26 09:01:32;;;;;;;17.25;2.78;;;8.10;99.90;;;;;;5004761;28;20507;-65
2023/03/26 09:04:23;;;;;;;16.95;2.80;;;8.20;99.90;;;;;;4967679;28;20041;-66
2023/03/26 09:07:37;;;;;;;19.55;2.17;;;8.10;99.90;;;;;;4972267;28;20518;-66
2023/03/26 09:10:05;;;;;;;17.52;3.05;;;8.20;99.90;;;;;;4942445;28;20075;-66
2023/03/26 09:12:41;;;;;;;15.43;2.63;;;8.20;99.90;;;;;;5009690;28;20745;-66
2023/03/26 09:15:19;;;;;;;12.52;2.85;;;8.30;99.90;;;;;;4995647;28;20381;-65
2023/03/26 09:18:07;;;;;;;15.48;3.00;;;8.30;99.90;;;;;;4995624;28;20037;-65
2023/03/26 09:21:10;;;;;;;12.40;2.63;;;8.50;99.90;;;;;;4995330;28;20095;-66
2023/03/26 09:23:58;;;;;;;14.18;2.40;;;8.50;99.90;;;;;;5008177;28;20045;-64
2023/03/26 09:26:58;;;;;;;19.83;3.05;;;8.50;99.90;;;;;;4995297;28;20061;-65
2023/03/26 09:29:35;;;;;;;18.30;3.38;;;8.60;99.90;;;;;;5011361;28;20503;-64
2023/03/26 09:32:29;;;;;;;22.30;3.20;;;8.70;99.90;;;;;;4990526;28;20057;-65
2023/03/26 09:35:24;;;;;;;14.68;3.03;;;8.80;99.90;;;;;;4995527;28;20054;-64
2023/03/26 09:38:11;;;;;;;13.30;2.38;;;8.80;99.90;;;;;;5000253;28;20053;-66
2023/03/26 09:40:50;;;;;;;21.02;2.97;;;8.70;99.90;;;;;;5006998;28;20136;-64
2023/03/26 09:43:22;;;;;;;20.85;3.03;;;8.70;99.90;;;;;;4998089;28;20538;-64
2023/03/26 09:46:00;;;;;;;12.20;3.13;;;8.70;99.90;;;;;;5004193;28;20107;-65
2023/03/26 09:49:11;;;;;;;16.50;2.60;;;8.70;99.90;;;;;;4999072;28;20078;-64
2023/03/26 09:51:39;;;;;;;14.73;2.85;;;8.80;99.90;;;;;;4958267;28;20049;-66
2023/03/26 09:54:08;;;;;;;17.60;2.95;;;8.80;99.90;;;;;;4992965;28;20075;-64
2023/03/26 09:56:42;;;;;;;20.50;2.88;;;8.80;99.90;;;;;;4994364;28;20153;-65
2023/03/26 09:59:20;;;;;;;17.80;3.28;;;8.70;99.90;;;;;;4984633;28;20412;-65
2023/03/26 10:01:59;;;;;;;18.42;2.90;;;8.60;99.90;;;;;;4991867;28;20068;-65
2023/03/26 10:04:59;;;;;;;16.52;2.67;;;8.60;99.90;;;;;;4999984;28;20053;-67
2023/03/26 10:07:39;;;;;;;13.88;2.97;;;8.60;99.90;;;;;;4977614;28;20539;-66
2023/03/26 10:10:34;;;;;;;16.02;3.38;;;8.50;99.90;;;;;;5005678;28;20243;-65
2023/03/26 10:13:10;;;;;;;26.45;3.30;;;8.50;99.90;;;;;;4965956;28;20044;-67
2023/03/26 10:16:05;;;;;;;16.52;2.83;;;8.50;99.90;;;;;;4977039;28;20060;-65
2023/03/26 10:19:08;;;;;;;16.63;2.80;;;8.50;99.90;;;;;;4971067;28;20065;-66
2023/03/26 10:21:52;;;;;;;13.05;3.55;;;8.50;99.90;;;;;;4951270;28;20357;-66
2023/03/26 10:24:17;;;;;;;18.95;3.00;;;8.50;99.90;;;;;;4983047;28;20432;-66
2023/03/26 10:27:16;;;;;;;16.45;2.72;;;8.60;99.90;;;;;;4977316;28;20049;-67
2023/03/26 10:30:03;;;;;;;17.00;2.67;;;8.50;99.90;;;;;;4959010;28;20058;-66
2023/03/26 10:32:47;;;;;;;17.88;2.58;;;8.50;99.90;;;;;;4990306;28;20400;-67
2023/03/26 10:35:38;;;;;;;18.50;3.28;;;8.50;99.90;;;;;;4985180;28;20053;-65
2023/03/26 10:38:23;;;;;;;15.55;2.65;;;8.50;99.90;;;;;;4983585;28;20597;-67
2023/03/26 10:41:17;;;;;;;16.92;2.60;;;8.50;99.90;;;;;;4980606;28;20129;-64
2023/03/26 10:44:20;;;;;;;16.10;3.45;;;8.60;99.90;;;;;;5008601;28;20046;-66
2023/03/26 10:47:01;;;;;;;10.55;2.10;;;8.70;99.90;;;;;;4978918;28;20056;-66
2023/03/26 10:50:18;;;;;;;12.88;2.83;;;8.70;99.90;;;;;;4971280;28;20100;-65
2023/03/26 10:52:51;;;;;;;13.15;2.60;;;8.80;99.90;;;;;;4935395;28;20077;-65
2023/03/26 10:55:39;;;;;;;17.50;2.90;;;8.80;99.90;;;;;;4920794;28;20054;-67
2023/03/26 10:58:25;;;;;;;28.05;3.17;;;8.90;99.90;;;;;;4972108;28;20053;-66
2023/03/26 11:01:00;;;;;;;17.45;3.03;;;8.90;99.90;;;;;;4989517;28;20053;-67
2023/03/26 11:03:50;;;;;;;13.70;2.85;;;8.90;99.90;;;;;;4990094;28;20512;-66
2023/03/26 11:06:47;;;;;;;16.00;3.38;;;8.90;99.70;;;;;;4955314;28;20057;-65
2023/03/26 11:09:51;;;;;;;16.35;2.88;;;8.90;99.90;;;;;;4993170;28;20100;-66
2023/03/26 11:12:31;;;;;;;;;;;8.90;99.90;;;;;;4975068;28;20072;-64
2023/03/26 11:15:00;;;;;;;13.43;2.83;;;8.90;99.80;;;;;;4993956;28;19928;-65
2023/03/26 11:18:07;;;;;;;11.63;2.45;;;8.90;99.90;;;;;;4998826;28;20056;-65
2023/03/26 11:20:42;;;;;;;19.13;3.22;;;8.90;99.60;;;;;;4978952;28;20136;-65
2023/03/26 11:23:33;;;;;;;13.68;2.47;;;8.90;99.50;;;;;;4971068;28;20056;-64
2023/03/26 11:26:31;;;;;;;10.90;2.25;;;8.90;99.40;;;;;;4988070;28;21176;-64
2023/03/26 11:29:19;;;;;;;8.85;2.42;;;8.90;99.20;;;;;;4989510;28;20049;-64
2023/03/26 11:31:47;;;;;;;17.08;2.80;;;8.90;99.20;;;;;;4977241;28;20084;-62
2023/03/26 11:34:17;;;;;;;13.20;2.20;;;8.90;99.40;;;;;;4974688;28;20108;-63
2023/03/26 11:36:55;;;;;;;17.10;2.60;;;9.00;99.30;;;;;;4998397;28;20052;-62
2023/03/26 11:39:26;;;;;;;15.07;2.70;;;9.10;98.90;;;;;;4992305;28;20050;-62
2023/03/26 11:42:17;;;;;;;9.03;2.20;;;9.20;98.30;;;;;;4986274;28;20477;-63
2023/03/26 11:44:57;;;;;;;13.48;2.95;;;9.10;98.10;;;;;;4997804;28;20046;-64
2023/03/26 11:47:31;;;;;;;8.65;2.40;;;9.20;98.30;;;;;;4977058;28;20127;-63
2023/03/26 11:49:59;;;;;;;19.02;2.60;;;9.20;97.90;;;;;;4995171;28;20049;-62
2023/03/26 11:52:26;;;;;;;14.43;2.45;;;9.30;98.00;;;;;;5004082;28;20768;-64
2023/03/26 11:54:52;;;;;;;14.05;2.58;;;9.30;97.90;;;;;;4995311;28;20504;-63
2023/03/26 11:57:25;;;;;;;13.68;2.22;;;9.30;97.80;;;;;;4995616;28;20052;-62
2023/03/26 11:59:58;;;;;;;13.07;2.50;;;9.30;97.90;;;;;;4996539;28;20058;-63
2023/03/26 12:02:27;;;;;;;16.27;2.70;;;9.30;97.80;;;;;;4992269;28;20050;-62
2023/03/26 12:05:11;;;;;;;14.32;2.90;;;9.30;97.50;;;;;;4990175;28;20456;-63
2023/03/26 12:07:45;;;;;;;13.48;2.63;;;9.30;97.20;;;;;;4988190;28;20115;-62
2023/03/26 12:10:41;;;;;;;17.88;2.53;;;9.30;97.10;;;;;;4975356;28;20053;-61
2023/03/26 12:13:36;;;;;;;16.15;2.80;;;9.20;97.40;;;;;;4987686;28;20049;-61
2023/03/26 12:16:12;;;;;;;12.15;2.42;;;9.10;97.00;;;;;;4985708;28;20065;-61
2023/03/26 12:18:40;;;;;;;10.57;2.40;;;9.10;97.30;;;;;;4974446;28;20046;-61
2023/03/26 12:21:15;;;;;;;15.27;2.22;;;9.10;97.30;;;;;;4990115;28;20404;-61
2023/03/26 12:23:52;;;;;;;16.27;2.80;;;9.10;96.60;;;;;;4987780;28;20072;-61
2023/03/26 12:26:29;;;;;;;10.45;1.90;;;9.10;96.00;;;;;;5004705;28;20076;-62
2023/03/26 12:28:54;;;;;;;13.18;2.67;;;9.10;96.00;;;;;;4999350;28;20053;-61
2023/03/26 12:31:21;;;;;;;13.15;2.70;;;9.10;96.10;;;;;;5001370;28;20054;-63
2023/03/26 12:34:15;;;;;;;12.75;2.38;;;9.10;96.20;;;;;;4989940;28;20510;-63
2023/03/26 12:36:51;;;;;;;12.00;2.40;;;9.20;95.90;;;;;;4999483;28;20073;-61
2023/03/26 12:39:34;;;;;;;16.60;2.20;;;9.30;95.70;;;;;;5003169;28;20057;-61
2023/03/26 12:42:01;;;;;;;10.63;2.33;;;9.30;94.80;;;;;;4985904;28;20079;-61
2023/03/26 12:44:32;;;;;;;10.77;2.13;;;9.30;94.80;;;;;;4998546;28;20051;-62
2023/03/26 12:47:14;;;;;;;14.30;2.75;;;9.30;93.70;;;;;;4987028;28;20048;-62
2023/03/26 12:49:41;;;;;;;14.77;2.13;;;9.30;94.30;;;;;;5001895;28;20116;-62
2023/03/26 12:52:32;;;;;;;9.35;2.53;;;9.30;94.60;;;;;;4984041;28;20572;-62
2023/03/26 12:55:07;;;;;;;14.25;2.65;;;9.30;93.70;;;;;;5005924;28;20057;-62
2023/03/26 12:57:55;;;;;;;11.18;2.00;;;9.20;93.90;;;;;;5007714;28;20356;-62
2023/03/26 13:01:04;;;;;;;10.73;1.88;;;9.30;94.20;;;;;;4998156;28;20057;-62
2023/03/26 13:03:30;;;;;;;16.65;2.35;;;9.40;94.20;;;;;;4999665;28;20080;-62
2023/03/26 13:06:17;;;;;;;13.10;2.10;;;9.30;94.90;;;;;;4985291;28;21113;-62
2023/03/26 13:09:03;;;;;;;12.55;2.33;;;9.30;95.40;;;;;;4978768;28;20057;-62
2023/03/26 13:11:41;;;;;;;15.73;2.65;;;9.20;95.50;;;;;;4987578;28;20100;-62
2023/03/26 13:14:27;;;;;;;17.92;2.55;;;9.00;96.50;;;;;;4988570;28;20136;-62
2023/03/26 13:17:31;;;;;;;20.27;2.30;;;9.00;97.00;;;;;;5005010;28;20173;-62
2023/03/26 13:20:05;;;;;;;7.63;2.15;;;8.90;96.80;;;;;;5003679;28;20041;-62
2023/03/26 13:22:53;;;;;;;9.98;1.90;;;8.90;97.10;;;;;;4984579;28;20324;-62
2023/03/26 13:25:54;;;;;;;12.23;2.22;;;8.80;96.80;;;;;;4984495;28;20130;-62